Portada
METAR-TAF:

METAR-TAF

Aeroports :

Txungking, Xina

latitud: 29-31N, longitud: 106-29E, altitud: 351 m

Observació

L'informe es va fer fa 17 minuts, a les 07:00 UTC
Vent 2 kt amb direcció variable
Temperatura 9°C
Humitat 71%
Pressió 1021 hPa
Visibilitat: 8000 m
Núvols disperses a una alçada de 2300 ft
Cel cobert a una alçada de 5000 ft

METAR: ZUCK 180700Z VRB01MPS 8000 SCT023 OVC050 09/04 Q1021 NOSIG

Hora: 15:17 (07:17 UTC)

Pronòstic

L'informe es va fer fa 4 hores i 14 minuts, a les 03:03 UTC
Pronòstic vàlid del 18 a les 06 UTC al 19 a les 06 UTC
Vent 6 kt del Nord/Nord-Est
Visibilitat: 6000 m
Cel cobert a una alçada de 5000 ft

TAF: ZUCK 180303Z 1806/1906 03003MPS 6000 OVC050 TX10/1808Z TN07/1822Z

Observacions i pronòstics meteorològics de més de 4000 aeroports (METAR i TAF).

Les estacions disponibles són els punts grocs i vermells al mapa.

Posi el ratolí al punt desitjat per veure el nom de l'estació.

Feu clic per veure les observacions i els pronòstics meteorològics.

Per canviar el mapa: feu clic els botons verds amb una creu de color negre per apropar; al botó verd amb un guió per allunyar la imatge; o en les fletxes verdes per a mapes adjacents.


METAR-TAF: